Terminal Aerodrome Forecast
Issued by NWS Grand Rapids, MI

Home | Current Version | Previous Version | Text Only | Print | Product List | Glossary On
Versions: 1 2 3 4 5 6 7 8 9 10 11 12 13 14 15 16 17 18 19 20 21 22 23 24 25 26 27
000
FTUS43 KGRR 130111 AAB
TAFGRR
TAF AMD
KGRR 130111Z 1301/1324 32008KT P6SM BKN045
      TEMPO 1301/1304 6SM -SHSN
     FM130400 VRB04KT P6SM BKN040
     FM131100 32011KT 2SM -SN OVC025
     FM131400 14011KT 1/2SM SN OVC007=

USA.gov is the U.S. government's official web portal to all federal, state and local government web resources and services.